createdAt,value
2022-08-19T00:00:17.808Z,91.320833
2022-08-19T00:05:18.032Z,91.316667
2022-08-19T00:10:17.829Z,91.300000
2022-08-19T00:15:17.970Z,91.300000
2022-08-19T00:20:17.838Z,91.300000
2022-08-19T00:25:18.185Z,91.316667
2022-08-19T00:30:17.863Z,91.337500
2022-08-19T00:35:17.943Z,91.345833
2022-08-19T00:40:17.822Z,91.458333
2022-08-19T00:45:17.856Z,91.479167
2022-08-19T00:50:17.905Z,91.462500
2022-08-19T00:55:17.930Z,91.400000
2022-08-19T01:00:17.966Z,91.400000
2022-08-19T01:05:17.757Z,91.400000
2022-08-19T01:10:17.815Z,91.400000
2022-08-19T01:15:17.813Z,91.400000
2022-08-19T01:20:17.893Z,91.400000
2022-08-19T01:25:17.841Z,91.416667
2022-08-19T01:30:17.842Z,91.400000
2022-08-19T01:35:17.882Z,91.450000
2022-08-19T01:40:18.131Z,91.470833
2022-08-19T01:45:17.869Z,91.479167
2022-08-19T01:50:17.989Z,91.500000
2022-08-19T01:55:17.840Z,91.483333
2022-08-19T02:00:17.838Z,91.483333
2022-08-19T02:05:17.899Z,91.500000
2022-08-19T02:10:18.076Z,91.500000
2022-08-19T02:15:18.122Z,91.516667
2022-08-19T02:20:18.248Z,91.595833
2022-08-19T02:25:17.807Z,91.600000
2022-08-19T02:30:17.839Z,91.675000
2022-08-19T02:35:17.794Z,91.700000
2022-08-19T02:40:18.056Z,91.700000
2022-08-19T02:45:17.798Z,91.750000
2022-08-19T02:50:17.768Z,91.812500
2022-08-19T02:55:17.857Z,91.900000
2022-08-19T03:00:18.083Z,91.883333
2022-08-19T03:05:17.839Z,91.900000
2022-08-19T03:10:17.839Z,91.862500
2022-08-19T03:15:18.096Z,91.900000
2022-08-19T03:20:17.799Z,91.900000
2022-08-19T03:25:17.826Z,91.900000
2022-08-19T03:30:23.158Z,91.900000
2022-08-19T03:35:17.806Z,91.900000
2022-08-19T03:40:17.847Z,91.700000
2022-08-19T03:45:17.820Z,91.708333
2022-08-19T03:50:18.074Z,91.800000
2022-08-19T03:55:17.856Z,91.879167
2022-08-19T04:00:17.859Z,92.058333
2022-08-19T04:05:17.815Z,92.058333
2022-08-19T04:10:18.090Z,91.958333
2022-08-19T04:15:19.076Z,91.879167
2022-08-19T04:20:17.813Z,91.712500
2022-08-19T04:25:18.032Z,91.550000
2022-08-19T04:30:17.733Z,91.450000
2022-08-19T04:35:21.011Z,91.466667
2022-08-19T04:40:17.849Z,91.408333
2022-08-19T04:45:17.756Z,91.337500
2022-08-19T04:50:17.914Z,91.312500
2022-08-19T04:55:18.154Z,91.370833
2022-08-19T05:00:17.783Z,91.416667
2022-08-19T05:05:18.166Z,91.500000
2022-08-19T05:10:17.942Z,91.625000
2022-08-19T05:15:17.730Z,91.691667
2022-08-19T05:20:18.014Z,91.712500
2022-08-19T05:25:18.244Z,91.820833
2022-08-19T05:30:17.799Z,91.850000
2022-08-19T05:35:17.741Z,91.833333
2022-08-19T05:40:17.834Z,91.900000
2022-08-19T05:45:17.773Z,91.750000
2022-08-19T05:50:18.045Z,91.691667
2022-08-19T05:55:17.712Z,91.720833
2022-08-19T06:00:20.413Z,91.620833
2022-08-19T06:05:17.746Z,91.433333
2022-08-19T06:10:17.774Z,91.366667
2022-08-19T06:15:17.754Z,91.254167
2022-08-19T06:20:20.292Z,91.200000
2022-08-19T06:25:17.910Z,91.091667
2022-08-19T06:30:17.731Z,91.041667
2022-08-19T06:35:17.826Z,91.000000
2022-08-19T06:40:17.821Z,90.966667
2022-08-19T06:45:17.766Z,90.800000
2022-08-19T06:50:17.783Z,90.829167
2022-08-19T06:55:17.731Z,90.750000
2022-08-19T07:00:18.094Z,90.691667
2022-08-19T07:05:18.028Z,90.712500
2022-08-19T07:10:18.067Z,90.725000
2022-08-19T07:15:17.978Z,90.716667
2022-08-19T07:20:17.756Z,90.583333
2022-08-19T07:25:17.757Z,90.633333
2022-08-19T07:30:17.764Z,90.520833
2022-08-19T07:35:17.748Z,90.554167
2022-08-19T07:40:17.778Z,90.425000
2022-08-19T07:45:17.761Z,90.404167
2022-08-19T07:50:17.862Z,90.416667
2022-08-19T07:55:42.377Z,90.458333
2022-08-19T08:00:21.697Z,90.616667
2022-08-19T08:05:17.746Z,90.737500
2022-08-19T08:10:20.981Z,90.916667
2022-08-19T08:15:17.786Z,91.100000
2022-08-19T08:20:17.749Z,91.237500
2022-08-19T08:25:17.734Z,91.333333
2022-08-19T08:30:17.753Z,91.395833
2022-08-19T08:35:18.115Z,91.595833
2022-08-19T08:40:17.950Z,91.725000
2022-08-19T08:45:18.285Z,91.937500
2022-08-19T08:50:17.955Z,91.866667
2022-08-19T08:55:18.032Z,92.000000
2022-08-19T09:00:17.660Z,91.966667
2022-08-19T09:05:17.980Z,91.887500
2022-08-19T09:10:18.146Z,91.983333
2022-08-19T09:15:17.914Z,91.991667
2022-08-19T09:20:17.858Z,91.612500
2022-08-19T09:25:17.920Z,91.508000
2022-08-19T09:30:17.884Z,91.900000
2022-08-19T09:35:17.672Z,91.775000
2022-08-19T09:40:18.127Z,91.816667
2022-08-19T09:45:17.744Z,91.600000
2022-08-19T09:50:17.782Z,91.283333
2022-08-19T09:55:17.734Z,91.300000
2022-08-19T10:00:17.948Z,91.075000
2022-08-19T10:05:18.979Z,90.850000
2022-08-19T10:10:17.606Z,90.845833
2022-08-19T10:15:17.627Z,90.945833
2022-08-19T10:20:17.976Z,91.275000
2022-08-19T10:25:17.911Z,90.916667
2022-08-19T10:30:17.639Z,90.604167
2022-08-19T10:35:21.838Z,90.100000
2022-08-19T10:40:17.902Z,89.983333
2022-08-19T10:45:17.701Z,89.850000
2022-08-19T10:50:18.089Z,89.883333
2022-08-19T10:55:17.645Z,89.379167
2022-08-19T11:00:17.815Z,89.536000
2022-08-19T11:05:17.726Z,89.329167
2022-08-19T11:10:21.374Z,89.458333
2022-08-19T11:15:17.665Z,89.354167
2022-08-19T11:20:17.642Z,89.241667
2022-08-19T11:25:17.636Z,89.433333
2022-08-19T11:30:17.831Z,89.529167
2022-08-19T11:35:17.660Z,89.766667
2022-08-19T11:40:17.935Z,89.804167
2022-08-19T11:45:17.725Z,89.658333
2022-08-19T11:50:18.019Z,89.258333
2022-08-19T11:55:17.794Z,88.866667
2022-08-19T12:00:17.647Z,89.354167
2022-08-19T12:05:17.717Z,88.616667
2022-08-19T12:10:19.460Z,88.704167
2022-08-19T12:15:17.677Z,88.833333
2022-08-19T12:20:17.648Z,88.825000
2022-08-19T12:25:17.922Z,88.800000
2022-08-19T12:30:17.695Z,88.770833
2022-08-19T12:35:17.693Z,88.900000
2022-08-19T12:40:17.849Z,88.475000
2022-08-19T12:45:17.701Z,88.058333
2022-08-19T12:50:17.714Z,87.895833
2022-08-19T12:55:17.653Z,87.416667
2022-08-19T13:00:17.621Z,87.541667
2022-08-19T13:05:17.795Z,86.983333
2022-08-19T13:10:17.720Z,86.945833
2022-08-19T13:15:19.442Z,86.600000
2022-08-19T13:20:17.704Z,86.991667
2022-08-19T13:25:17.726Z,87.241667
2022-08-19T13:30:17.872Z,86.792000
2022-08-19T13:35:17.807Z,86.770833
2022-08-19T13:40:18.125Z,87.029167
2022-08-19T13:45:18.136Z,87.508333
2022-08-19T13:50:17.826Z,87.208333
2022-08-19T13:55:22.094Z,87.512500
2022-08-19T14:00:17.629Z,87.720833
2022-08-19T14:05:17.739Z,87.200000
2022-08-19T14:10:17.635Z,87.180000
2022-08-19T14:15:17.635Z,86.795833
2022-08-19T14:20:18.492Z,86.841667
2022-08-19T14:25:17.737Z,86.516667
2022-08-19T14:30:17.768Z,85.362500
2022-08-19T14:35:17.723Z,84.983333
2022-08-19T14:40:17.650Z,84.950000
2022-08-19T14:45:17.675Z,85.600000
2022-08-19T14:50:18.601Z,84.570833
2022-08-19T14:55:17.575Z,84.520833
2022-08-19T15:00:17.765Z,84.450000
2022-08-19T15:05:17.661Z,85.029167
2022-08-19T15:10:17.604Z,85.275000
2022-08-19T15:15:17.589Z,85.133333
2022-08-19T15:20:17.645Z,85.420833
2022-08-19T15:25:17.629Z,85.208000
2022-08-19T15:30:17.937Z,85.244000
2022-08-19T15:35:17.586Z,85.483333
2022-08-19T15:40:18.122Z,84.954167
2022-08-19T15:45:18.147Z,84.683333
2022-08-19T15:50:17.635Z,85.016667
2022-08-19T15:55:32.426Z,85.120833
2022-08-19T16:00:17.545Z,85.608333
2022-08-19T16:05:17.659Z,85.375000
2022-08-19T16:10:26.117Z,85.491667
2022-08-19T16:15:17.583Z,85.729167
2022-08-19T16:20:17.544Z,85.750000
2022-08-19T16:25:17.624Z,85.304167
2022-08-19T16:30:17.655Z,84.820833
2022-08-19T16:35:17.517Z,84.904167
2022-08-19T16:40:17.705Z,85.258333
2022-08-19T16:45:17.584Z,85.462500
2022-08-19T16:50:25.257Z,85.120833
2022-08-19T16:55:17.513Z,84.866667
2022-08-19T17:00:17.530Z,84.575000
2022-08-19T17:05:17.610Z,84.883333
2022-08-19T17:10:17.532Z,84.891667
2022-08-19T17:15:17.937Z,84.808333
2022-08-19T17:20:18.283Z,84.637500
2022-08-19T17:25:17.926Z,84.691667
2022-08-19T17:30:17.948Z,84.650000
2022-08-19T17:35:22.247Z,84.587500
2022-08-19T17:40:17.525Z,84.370833
2022-08-19T17:45:17.799Z,84.562500
2022-08-19T17:50:17.556Z,84.683333
2022-08-19T17:55:17.536Z,84.950000
2022-08-19T18:00:17.769Z,85.016000
2022-08-19T18:05:17.564Z,84.983333
2022-08-19T18:10:17.614Z,84.887500
2022-08-19T18:15:17.503Z,84.825000
2022-08-19T18:20:17.546Z,85.320833
2022-08-19T18:25:17.572Z,85.766667
2022-08-19T18:30:17.904Z,86.141667
2022-08-19T18:35:17.485Z,86.150000
2022-08-19T18:40:17.619Z,85.850000
2022-08-19T18:45:17.744Z,86.270833
2022-08-19T18:50:17.536Z,86.579167
2022-08-19T18:55:17.628Z,86.500000
2022-08-19T19:00:17.641Z,86.662500
2022-08-19T19:05:17.567Z,86.695833
2022-08-19T19:10:17.970Z,87.016667
2022-08-19T19:15:17.560Z,87.183333
2022-08-19T19:20:17.640Z,87.412500
2022-08-19T19:25:17.736Z,87.179167
2022-08-19T19:30:17.770Z,86.866667
2022-08-19T19:35:17.739Z,87.156000
2022-08-19T19:40:18.076Z,87.933333
2022-08-19T19:45:17.545Z,88.383333
2022-08-19T19:50:17.669Z,88.970833
2022-08-19T19:55:18.428Z,88.825000
2022-08-19T20:00:17.487Z,88.608333
2022-08-19T20:05:17.608Z,88.600000
2022-08-19T20:10:17.589Z,88.620833
2022-08-19T20:15:17.509Z,88.812500
2022-08-19T20:20:17.471Z,89.216667
2022-08-19T20:25:17.961Z,89.704167
2022-08-19T20:30:19.286Z,89.979167
2022-08-19T20:35:17.454Z,90.345833
2022-08-19T20:40:21.876Z,90.550000
2022-08-19T20:45:32.886Z,90.720833
2022-08-19T20:50:17.549Z,90.800000
2022-08-19T20:55:17.535Z,90.750000
2022-08-19T21:00:17.536Z,90.925000
2022-08-19T21:05:17.610Z,91.208333
2022-08-19T21:10:17.509Z,91.358333
2022-08-19T21:15:17.504Z,91.454167
2022-08-19T21:20:17.671Z,91.570833
2022-08-19T21:25:17.593Z,91.579167
2022-08-19T21:30:17.943Z,91.583333
2022-08-19T21:35:17.956Z,91.712500
2022-08-19T21:40:17.757Z,91.720833
2022-08-19T21:45:17.509Z,91.579167
2022-08-19T21:50:18.235Z,91.087500
2022-08-19T21:55:17.580Z,90.883333
2022-08-19T22:00:17.460Z,90.866667
2022-08-19T22:05:17.527Z,90.833333
2022-08-19T22:10:17.689Z,90.870833
2022-08-19T22:15:17.563Z,90.816667
2022-08-19T22:20:17.513Z,90.776000
2022-08-19T22:25:31.810Z,90.554167
2022-08-19T22:30:17.710Z,90.479167
2022-08-19T22:35:17.462Z,90.470833
2022-08-19T22:40:17.479Z,90.483333
2022-08-19T22:45:17.521Z,90.216667
2022-08-19T22:50:17.478Z,90.112500
2022-08-19T22:55:17.607Z,89.691667
2022-08-19T23:00:17.706Z,88.966667
2022-08-19T23:05:17.490Z,88.125000
2022-08-19T23:10:26.717Z,87.800000
2022-08-19T23:15:17.858Z,87.637500
2022-08-19T23:20:17.452Z,87.395833
2022-08-19T23:25:17.461Z,87.095833
2022-08-19T23:30:17.453Z,86.533333
2022-08-19T23:35:17.417Z,86.458333
2022-08-19T23:40:17.670Z,86.525000
2022-08-19T23:45:18.102Z,86.683333
2022-08-19T23:50:17.560Z,86.650000
2022-08-19T23:55:17.938Z,86.500000
